Time;durP1;ratioP1;P1;durP2;ratioP2;P2;SDS_P1;SDS_P2;PMS_P1;PMS_P2;Temp;Humidity;BMP_temperature;BMP_pressure;BME280_temperature;BME280_humidity;BME280_pressure;Samples;Min_cycle;Max_cycle;Signal;HPM_P1;HPM_P2
2022/01/31 00:04:51;;;;;;;24.92;5.15;;;;;;;2.01;59.45;100256.00;10471753;28;20097;-68
2022/01/31 00:09:53;;;;;;;27.05;6.38;;;;;;;1.94;59.36;100236.38;10474490;28;20051;-68
2022/01/31 00:15:01;;;;;;;22.48;5.80;;;;;;;2.08;59.53;100210.28;10472113;28;20520;-69
2022/01/31 00:20:03;;;;;;;21.63;5.25;;;;;;;1.95;59.44;100206.28;10479355;28;20369;-68
2022/01/31 00:25:05;;;;;;;21.23;4.80;;;;;;;1.94;59.55;100179.63;10491029;28;20054;-68
2022/01/31 00:30:08;;;;;;;24.25;5.57;;;;;;;1.94;59.65;100148.69;10471234;28;20449;-68
2022/01/31 00:35:10;;;;;;;28.45;5.50;;;;;;;1.88;59.54;100127.31;10480465;28;20470;-68
2022/01/31 00:40:13;;;;;;;23.17;4.85;;;;;;;1.84;59.75;100084.44;10471904;28;20163;-68
2022/01/31 00:50:20;;;;;;;18.95;4.75;;;;;;;1.84;59.75;100030.28;10472154;28;20053;-69
2022/01/31 00:55:22;;;;;;;22.15;4.88;;;;;;;1.73;60.09;99999.59;10472911;28;20056;-68
2022/01/31 01:00:23;;;;;;;15.57;4.30;;;;;;;1.82;60.07;99952.97;10472991;28;20620;-69
2022/01/31 01:05:25;;;;;;;17.65;3.97;;;;;;;1.85;59.95;99944.28;10472607;28;20111;-68
2022/01/31 01:10:27;;;;;;;17.90;4.05;;;;;;;1.86;59.80;99931.38;10481407;28;20041;-68
2022/01/31 01:15:29;;;;;;;18.45;5.07;;;;;;;1.88;60.02;99926.19;10489449;28;20054;-68
2022/01/31 01:20:32;;;;;;;15.43;3.80;;;;;;;1.96;59.80;99909.63;10472512;28;20604;-68
2022/01/31 01:25:34;;;;;;;17.67;4.10;;;;;;;2.05;59.72;99895.66;10471852;28;20072;-68
2022/01/31 01:30:36;;;;;;;18.95;4.00;;;;;;;2.04;59.67;99853.56;10471588;28;20493;-68
2022/01/31 01:35:39;;;;;;;15.63;4.13;;;;;;;2.06;59.67;99830.28;10470485;28;20048;-68
2022/01/31 01:40:41;;;;;;;16.08;3.70;;;;;;;2.15;59.66;99828.28;10471440;28;20140;-68
2022/01/31 01:45:43;;;;;;;17.48;3.92;;;;;;;2.26;59.63;99804.78;10469806;28;20674;-68
2022/01/31 01:50:46;;;;;;;18.40;5.40;;;;;;;2.42;59.17;99790.53;10470415;28;20083;-68
2022/01/31 01:55:50;;;;;;;18.55;4.75;;;;;;;2.61;58.73;99780.53;10468695;28;20050;-68
2022/01/31 02:00:59;;;;;;;17.20;3.75;;;;;;;2.65;58.61;99777.81;10470307;28;20041;-68
2022/01/31 02:06:02;;;;;;;20.98;5.40;;;;;;;2.70;58.61;99750.09;10469604;28;20056;-69
2022/01/31 02:11:03;;;;;;;16.50;4.78;;;;;;;2.80;58.58;99730.03;10470669;28;20054;-68
2022/01/31 02:16:07;;;;;;;18.33;4.03;;;;;;;2.86;58.37;99743.59;10469513;28;20059;-68
2022/01/31 02:21:09;;;;;;;20.98;6.00;;;;;;;2.91;58.35;99739.13;10488718;28;20106;-68
2022/01/31 02:26:10;;;;;;;17.38;3.72;;;;;;;3.01;58.31;99719.00;10469566;28;20131;-68
2022/01/31 02:31:12;;;;;;;21.10;4.50;;;;;;;2.98;58.21;99701.88;10470385;28;20059;-68
2022/01/31 02:36:14;;;;;;;22.67;5.70;;;;;;;3.02;58.04;99671.63;10468206;28;20053;-69
2022/01/31 02:41:15;;;;;;;21.77;5.20;;;;;;;2.86;58.38;99655.78;10468528;28;20052;-69
2022/01/31 02:46:17;;;;;;;23.48;7.18;;;;;;;2.92;58.38;99637.50;10468562;28;20155;-68
2022/01/31 02:51:22;;;;;;;18.48;4.10;;;;;;;2.80;58.55;99619.00;10467468;28;20048;-68
2022/01/31 02:56:24;;;;;;;18.42;3.58;;;;;;;3.03;58.47;99588.91;10468081;28;20062;-68
2022/01/31 03:01:26;;;;;;;14.88;3.58;;;;;;;3.04;58.19;99558.75;10469524;28;20051;-68
2022/01/31 03:06:28;;;;;;;14.60;3.53;;;;;;;3.11;58.25;99534.38;10481623;28;20048;-68
2022/01/31 03:11:29;;;;;;;15.98;3.80;;;;;;;3.15;58.27;99498.94;10487372;28;20059;-68
2022/01/31 03:16:33;;;;;;;12.93;3.75;;;;;;;3.20;58.10;99486.69;10475793;28;20056;-68
2022/01/31 03:21:36;;;;;;;14.82;3.92;;;;;;;3.25;58.02;99459.78;10476333;28;20127;-69
2022/01/31 03:26:39;;;;;;;14.60;3.60;;;;;;;3.30;58.16;99421.69;10475153;28;20070;-68
2022/01/31 03:31:41;;;;;;;16.92;3.65;;;;;;;3.37;57.70;99393.88;10481305;28;20569;-68
2022/01/31 03:36:43;;;;;;;19.63;3.70;;;;;;;3.35;58.25;99383.59;10505241;28;20148;-68
2022/01/31 03:41:45;;;;;;;19.27;4.00;;;;;;;3.48;58.58;99356.34;10475380;28;20847;-69
2022/01/31 03:46:47;;;;;;;17.58;3.65;;;;;;;3.47;58.67;99346.06;10475447;28;20052;-69
2022/01/31 03:51:53;;;;;;;18.10;4.22;;;;;;;3.43;59.07;99329.84;10474924;28;20063;-68
2022/01/31 03:56:55;;;;;;;16.13;3.50;;;;;;;3.55;58.88;99320.75;10475409;28;20080;-68
2022/01/31 04:01:57;;;;;;;15.68;4.07;;;;;;;3.45;59.82;99306.53;10474365;28;20048;-68
2022/01/31 04:06:59;;;;;;;22.33;5.35;;;;;;;3.51;60.39;99311.44;10474200;28;20139;-68
2022/01/31 04:12:01;;;;;;;19.85;4.00;;;;;;;3.37;61.56;99272.41;10508948;28;20694;-68
2022/01/31 04:17:07;;;;;;;13.13;3.88;;;;;;;3.40;61.49;99261.91;10473819;28;20147;-69
2022/01/31 04:22:11;;;;;;;15.10;4.38;;;;;;;3.33;62.08;99255.34;10467708;28;20041;-68
2022/01/31 04:27:18;;;;;;;16.70;3.85;;;;;;;3.18;63.56;99245.59;10467911;28;20044;-68
2022/01/31 04:32:20;;;;;;;13.65;4.10;;;;;;;3.00;64.58;99250.63;10467653;28;20127;-68
2022/01/31 04:37:21;;;;;;;19.42;4.60;;;;;;;2.81;65.43;99241.91;10465947;28;20121;-68
2022/01/31 04:42:24;;;;;;;14.70;4.32;;;;;;;2.76;65.49;99243.00;10473566;28;20055;-68
2022/01/31 04:47:26;;;;;;;13.95;4.45;;;;;;;2.69;66.08;99233.81;10475405;28;20114;-68
2022/01/31 04:52:28;;;;;;;16.40;4.60;;;;;;;2.71;66.63;99213.94;10475405;28;20055;-68
2022/01/31 04:57:30;;;;;;;12.82;4.28;;;;;;;2.60;67.24;99208.38;10474831;28;20063;-68
2022/01/31 05:02:32;;;;;;;11.30;4.78;;;;;;;2.56;67.83;99194.72;10474548;28;20235;-68
2022/01/31 05:07:34;;;;;;;12.68;4.88;;;;;;;2.63;67.67;99201.34;10474339;28;20052;-67
2022/01/31 05:12:36;;;;;;;8.25;3.97;;;;;;;2.65;67.75;99168.56;10474467;28;20052;-68
2022/01/31 05:17:38;;;;;;;8.13;3.70;;;;;;;2.66;67.74;99170.22;10472686;28;20056;-68
2022/01/31 05:22:39;;;;;;;10.20;3.92;;;;;;;2.61;68.03;99148.09;10473652;28;20052;-68
2022/01/31 05:27:41;;;;;;;7.88;3.53;;;;;;;2.62;68.12;99145.44;10473466;28;20053;-68
2022/01/31 05:32:43;;;;;;;6.65;3.13;;;;;;;2.69;68.23;99146.88;10473818;28;20048;-67
2022/01/31 05:37:45;;;;;;;12.02;3.92;;;;;;;2.69;68.42;99126.22;10472974;28;20416;-68
2022/01/31 05:42:47;;;;;;;6.55;2.80;;;;;;;2.65;68.81;99129.00;10472675;28;20467;-67
2022/01/31 05:47:50;;;;;;;6.20;2.50;;;;;;;2.70;68.59;99137.41;10472652;28;20049;-68
2022/01/31 05:52:52;;;;;;;5.00;2.40;;;;;;;2.71;68.99;99145.06;10472261;28;20051;-67
2022/01/31 05:57:54;;;;;;;4.10;2.00;;;;;;;2.68;69.42;99136.63;10471877;28;20151;-68
2022/01/31 06:02:59;;;;;;;4.55;2.20;;;;;;;2.94;68.91;99136.41;10471962;28;20075;-68
2022/01/31 06:08:01;;;;;;;4.60;2.28;;;;;;;2.99;68.08;99147.34;10470720;28;20055;-67
2022/01/31 06:13:02;;;;;;;3.80;2.03;;;;;;;3.03;67.93;99129.09;10471521;28;20048;-68
2022/01/31 06:18:04;;;;;;;5.07;2.35;;;;;;;2.93;67.92;99121.78;10471148;28;20052;-67
2022/01/31 06:23:06;;;;;;;3.63;2.00;;;;;;;2.88;68.06;99132.34;10471409;28;20058;-67
2022/01/31 06:28:08;;;;;;;4.72;2.28;;;;;;;2.98;67.96;99127.63;10470984;28;20084;-68
2022/01/31 06:33:15;;;;;;;5.90;2.10;;;;;;;2.98;68.17;99146.53;10470908;28;20135;-68
2022/01/31 06:38:17;;;;;;;7.03;2.40;;;;;;;2.96;68.21;99124.25;10469026;28;20698;-68
2022/01/31 06:43:19;;;;;;;4.97;3.00;;;;;;;3.09;68.11;99125.41;10470230;28;20135;-68
2022/01/31 06:48:20;;;;;;;5.15;2.53;;;;;;;3.14;67.82;99125.22;10469052;28;20083;-67
2022/01/31 06:53:26;;;;;;;3.70;2.05;;;;;;;3.17;67.88;99123.38;10469741;28;20079;-68
2022/01/31 06:58:28;;;;;;;7.15;2.20;;;;;;;3.24;67.53;99121.34;10469536;28;20088;-68
2022/01/31 07:03:30;;;;;;;5.93;2.20;;;;;;;3.34;67.54;99122.63;10468759;28;20049;-67
2022/01/31 07:08:32;;;;;;;5.18;2.35;;;;;;;3.27;67.62;99108.28;10469666;28;20105;-68
2022/01/31 07:18:36;;;;;;;5.20;2.38;;;;;;;3.28;67.63;99104.78;10481545;28;20419;-68
2022/01/31 07:23:52;;;;;;;5.82;1.90;;;;;;;3.32;67.45;99112.34;10467731;28;20044;-68
2022/01/31 07:28:53;;;;;;;8.10;2.95;;;;;;;3.32;67.42;99086.50;10481479;28;20706;-68
2022/01/31 07:33:55;;;;;;;4.60;2.08;;;;;;;3.43;67.16;99088.63;10468803;28;20044;-68
2022/01/31 07:38:57;;;;;;;5.50;2.30;;;;;;;3.40;67.05;99093.91;10500820;28;20126;-68
2022/01/31 07:43:59;;;;;;;5.88;2.00;;;;;;;3.35;67.00;99094.16;10468563;28;20630;-68
2022/01/31 07:49:01;;;;;;;5.47;2.10;;;;;;;3.40;67.19;99083.56;10468568;28;20052;-68
2022/01/31 07:54:02;;;;;;;5.25;2.15;;;;;;;3.63;66.58;99060.13;10468579;28;20047;-68
2022/01/31 07:59:04;;;;;;;5.93;2.05;;;;;;;3.54;66.43;99055.38;10513306;28;20052;-68
2022/01/31 08:04:06;;;;;;;7.38;2.13;;;;;;;3.70;66.72;99064.13;10468225;28;20496;-67
2022/01/31 08:09:08;;;;;;;7.38;2.13;;;;;;;4.06;65.80;99054.69;10468557;28;20135;-68
2022/01/31 08:14:11;;;;;;;7.22;2.35;;;;;;;4.10;65.74;99061.41;10470342;28;20041;-68
2022/01/31 08:19:13;;;;;;;8.77;2.17;;;;;;;3.95;66.10;99064.69;10516115;28;20110;-67
2022/01/31 08:24:35;;;;;;;7.00;2.10;;;;;;;3.69;66.82;99052.94;10517202;28;20515;-68
2022/01/31 08:29:38;;;;;;;7.05;2.40;;;;;;;3.82;66.44;99053.22;10475606;28;20076;-67
2022/01/31 08:40:01;;;;;;;5.28;2.20;;;;;;;3.64;67.16;99047.13;10506426;28;20388;-67
2022/01/31 08:45:04;;;;;;;7.68;2.40;;;;;;;3.43;68.17;99049.84;10516945;28;20059;-68
2022/01/31 08:50:06;;;;;;;9.00;2.40;;;;;;;3.53;68.02;99038.19;10504257;28;20088;-67
2022/01/31 08:55:10;;;;;;;7.38;2.00;;;;;;;3.56;68.30;99033.72;10515604;28;20676;-68
2022/01/31 09:00:12;;;;;;;6.50;2.30;;;;;;;3.78;67.66;99036.19;10514242;28;20049;-68
2022/01/31 09:05:14;;;;;;;5.88;2.10;;;;;;;3.66;68.10;99034.97;10474710;28;20052;-68
2022/01/31 09:10:18;;;;;;;5.88;2.10;;;;;;;3.67;68.40;99053.91;10474481;28;20512;-67
2022/01/31 09:15:20;;;;;;;5.75;1.85;;;;;;;3.55;68.35;99050.16;10474186;28;20078;-68
2022/01/31 09:20:21;;;;;;;5.93;1.80;;;;;;;3.56;68.25;99061.31;10473949;28;20142;-68
2022/01/31 09:25:26;;;;;;;6.32;2.55;;;;;;;3.71;67.91;99073.56;10472396;28;20059;-68
2022/01/31 09:30:29;;;;;;;5.07;1.90;;;;;;;3.55;68.43;99065.66;10473588;28;20515;-68
2022/01/31 09:35:31;;;;;;;5.72;1.70;;;;;;;3.70;67.95;99054.59;10488810;28;20133;-68
2022/01/31 09:40:33;;;;;;;5.40;1.73;;;;;;;3.62;68.12;99061.06;10473558;28;20412;-67
2022/01/31 09:45:54;;;;;;;4.95;1.90;;;;;;;3.78;67.89;99041.34;10488764;28;20143;-68
2022/01/31 09:51:02;;;;;;;7.00;2.00;;;;;;;3.92;68.06;99041.56;10473205;28;20151;-67
2022/01/31 09:56:08;;;;;;;5.45;1.95;;;;;;;4.00;67.59;99036.88;10472663;28;20567;-68
2022/01/31 10:01:13;;;;;;;5.43;1.70;;;;;;;4.01;67.58;99037.69;10472258;28;20053;-68
2022/01/31 10:06:24;;;;;;;5.65;1.83;;;;;;;3.85;67.93;99038.44;10470770;28;20067;-68
2022/01/31 10:11:29;;;;;;;6.53;1.80;;;;;;;3.91;67.90;99010.59;10469912;28;20056;-68
2022/01/31 10:16:32;;;;;;;5.00;1.55;;;;;;;3.98;67.86;99030.94;10469638;28;20139;-68
2022/01/31 10:21:56;;;;;;;5.88;1.70;;;;;;;3.96;67.82;99014.66;10489384;28;20059;-68
2022/01/31 10:27:06;;;;;;;3.65;1.50;;;;;;;3.92;68.16;99007.94;10468328;28;20056;-68
2022/01/31 10:32:10;;;;;;;4.22;1.73;;;;;;;3.76;68.28;99002.59;10470856;28;20148;-68
2022/01/31 10:37:17;;;;;;;3.33;1.27;;;;;;;3.86;67.89;99005.66;10464298;28;20057;-68
2022/01/31 10:53:05;;;;;;;2.75;1.30;;;;;;;3.90;67.78;99008.91;10469139;28;20052;-68
2022/01/31 10:58:10;;;;;;;2.80;1.20;;;;;;;3.77;68.27;99006.88;10477231;28;20905;-68
2022/01/31 11:03:32;;;;;;;4.65;1.63;;;;;;;3.62;67.98;99007.59;10468975;28;20048;-68
2022/01/31 11:08:34;;;;;;;2.45;1.13;;;;;;;3.75;67.79;98993.19;10468057;28;20052;-68
2022/01/31 11:13:37;;;;;;;4.22;1.27;;;;;;;3.68;68.06;98998.72;10468678;28;20058;-67
2022/01/31 11:18:43;;;;;;;5.45;1.40;;;;;;;3.90;68.00;99002.00;10468028;28;20876;-67
2022/01/31 11:23:50;;;;;;;3.35;1.25;;;;;;;3.99;67.79;99009.31;10466252;28;20048;-67
2022/01/31 11:28:53;;;;;;;3.65;1.40;;;;;;;4.14;66.97;99008.59;10468141;28;20497;-67
2022/01/31 11:33:58;;;;;;;3.33;1.30;;;;;;;4.02;67.21;99006.59;10468642;28;20052;-67
2022/01/31 11:39:01;;;;;;;3.50;1.20;;;;;;;4.09;67.31;99007.16;10467866;28;20515;-67
2022/01/31 11:44:29;;;;;;;4.40;1.30;;;;;;;3.98;67.58;99004.22;10487688;28;20045;-67
2022/01/31 11:49:47;;;;;;;2.55;1.10;;;;;;;4.06;67.02;99000.38;10496400;28;20134;-67
2022/01/31 11:54:49;;;;;;;3.08;1.00;;;;;;;4.20;67.04;99025.56;10506254;28;20056;-67
2022/01/31 11:59:56;;;;;;;3.42;1.10;;;;;;;4.03;66.81;99033.31;10477467;28;20049;-67
2022/01/31 12:05:06;;;;;;;2.67;1.10;;;;;;;4.13;66.93;99025.00;10468220;28;20143;-67
2022/01/31 12:10:20;;;;;;;5.03;1.42;;;;;;;4.06;67.18;99022.81;10468021;28;20313;-67
2022/01/31 12:16:05;;;;;;;3.63;1.23;;;;;;;4.09;66.71;99030.44;10472923;28;20052;-67
2022/01/31 12:26:39;;;;;;;1.90;0.95;;;;;;;4.03;66.84;99031.53;10509005;28;20134;-67
2022/01/31 12:32:08;;;;;;;5.63;1.30;;;;;;;3.96;67.10;99050.03;10473040;28;20052;-67
2022/01/31 12:37:25;;;;;;;2.35;1.10;;;;;;;3.99;67.33;99030.00;10467855;28;20151;-67
2022/01/31 12:48:17;;;;;;;3.08;1.38;;;;;;;3.79;67.66;99022.31;10487962;28;20084;-67
2022/01/31 12:53:22;;;;;;;5.55;1.50;;;;;;;3.86;67.82;99045.25;10502099;28;20058;-67
2022/01/31 12:58:41;;;;;;;3.42;1.30;;;;;;;3.94;67.81;99046.66;10489852;28;20066;-67
2022/01/31 13:03:47;;;;;;;6.70;1.58;;;;;;;4.04;67.35;99038.41;10486364;28;20139;-66
2022/01/31 13:08:50;;;;;;;3.97;1.50;;;;;;;4.04;67.27;99038.41;10476576;28;20481;-67
2022/01/31 13:14:01;;;;;;;7.10;1.77;;;;;;;4.03;67.60;99036.72;10496858;28;20516;-68
2022/01/31 13:19:11;;;;;;;6.73;1.90;;;;;;;4.02;67.59;99050.56;10497762;28;20052;-67
2022/01/31 13:24:13;;;;;;;8.13;2.23;;;;;;;4.29;67.14;99063.97;10488053;28;20946;-67
2022/01/31 13:29:40;;;;;;;7.65;1.88;;;;;;;4.29;66.63;99075.13;10500390;28;20500;-67
2022/01/31 13:34:44;;;;;;;7.20;3.20;;;;;;;4.39;66.55;99091.88;10500639;28;20047;-67
2022/01/31 13:39:53;;;;;;;6.22;2.05;;;;;;;4.39;66.16;99124.72;10488233;28;20488;-67
2022/01/31 13:44:57;;;;;;;7.05;2.53;;;;;;;4.47;66.13;99141.56;10494465;28;20055;-68
2022/01/31 13:50:01;;;;;;;5.80;2.40;;;;;;;4.46;66.15;99141.63;10494295;28;20500;-67
2022/01/31 13:55:04;;;;;;;7.57;2.20;;;;;;;4.43;66.26;99170.25;10489945;28;20048;-67
2022/01/31 14:00:06;;;;;;;5.18;2.20;;;;;;;4.46;65.96;99180.47;10497502;28;20426;-67
2022/01/31 14:05:24;;;;;;;7.47;2.38;;;;;;;4.46;65.63;99185.63;10499521;28;20052;-67
2022/01/31 14:10:27;;;;;;;5.80;2.25;;;;;;;4.57;65.71;99192.00;10504521;28;20143;-67
2022/01/31 14:15:29;;;;;;;6.95;2.25;;;;;;;4.62;65.71;99186.59;10475324;28;20151;-67
2022/01/31 14:20:39;;;;;;;4.72;1.80;;;;;;;4.44;65.50;99185.72;10499785;28;20044;-67
2022/01/31 14:25:49;;;;;;;7.22;2.38;;;;;;;4.41;65.82;99203.97;10492179;28;20139;-67
2022/01/31 14:30:53;;;;;;;6.90;1.75;;;;;;;4.32;65.40;99193.22;10490814;28;20044;-67
2022/01/31 14:36:10;;;;;;;4.50;1.50;;;;;;;4.24;65.78;99229.81;10491282;28;20061;-67
2022/01/31 14:52:06;;;;;;;4.00;1.53;;;;;;;4.08;65.99;99228.81;10473115;28;20140;-68
2022/01/31 14:57:10;;;;;;;4.97;1.60;;;;;;;4.22;66.02;99229.03;10468035;28;20056;-68
2022/01/31 15:02:12;;;;;;;4.45;1.27;;;;;;;4.04;66.49;99240.22;10471061;28;20052;-68
2022/01/31 15:07:29;;;;;;;3.92;1.38;;;;;;;3.95;66.78;99248.34;10470144;28;20477;-68
2022/01/31 15:12:31;;;;;;;3.38;1.23;;;;;;;4.02;66.58;99244.63;10468913;28;20045;-68
2022/01/31 15:17:34;;;;;;;4.18;1.27;;;;;;;4.16;66.43;99267.28;10469745;28;20055;-68
2022/01/31 15:22:36;;;;;;;4.03;1.30;;;;;;;4.10;66.25;99262.38;10468292;28;20064;-68
2022/01/31 15:27:39;;;;;;;4.22;1.42;;;;;;;4.02;66.42;99282.56;10467268;28;20129;-68
2022/01/31 15:32:40;;;;;;;3.67;1.13;;;;;;;4.08;66.37;99284.88;10469231;28;20390;-68
2022/01/31 15:37:42;;;;;;;3.63;1.20;;;;;;;3.94;66.54;99300.16;10468167;28;20098;-68
2022/01/31 15:42:54;;;;;;;2.75;1.20;;;;;;;3.96;66.64;99298.34;10468703;28;20048;-68
2022/01/31 15:47:56;;;;;;;4.70;2.10;;;;;;;3.94;66.70;99295.84;10468873;28;20137;-68
2022/01/31 15:52:57;;;;;;;3.17;1.50;;;;;;;3.96;66.72;99300.94;10466344;28;20458;-68
2022/01/31 15:58:03;;;;;;;4.30;1.40;;;;;;;3.98;66.81;99307.75;10467703;28;20071;-67
2022/01/31 16:03:06;;;;;;;3.72;1.33;;;;;;;4.04;66.37;99311.81;10467660;28;20199;-68
2022/01/31 16:08:12;;;;;;;3.90;1.40;;;;;;;4.00;66.53;99339.56;10467338;28;20087;-67
2022/01/31 16:13:20;;;;;;;4.45;1.50;;;;;;;3.87;67.30;99338.38;10483537;28;20040;-68
2022/01/31 16:18:23;;;;;;;4.78;2.13;;;;;;;3.87;67.38;99335.81;10467568;28;20515;-69
2022/01/31 16:23:27;;;;;;;5.03;1.77;;;;;;;3.75;67.78;99344.03;10466896;28;20655;-68
2022/01/31 16:28:29;;;;;;;4.70;2.53;;;;;;;3.93;67.24;99356.22;10466712;28;20520;-68
2022/01/31 16:33:30;;;;;;;3.75;1.55;;;;;;;3.85;67.68;99363.47;10466873;28;20048;-68
2022/01/31 16:38:32;;;;;;;7.25;2.22;;;;;;;3.98;67.41;99375.00;10473879;28;20044;-68
2022/01/31 16:43:34;;;;;;;6.22;1.90;;;;;;;3.93;67.56;99376.09;10474768;28;20072;-67
2022/01/31 16:48:35;;;;;;;3.55;1.77;;;;;;;3.94;67.61;99376.03;10473410;28;20163;-68
2022/01/31 16:53:37;;;;;;;6.18;1.60;;;;;;;4.06;67.28;99378.13;10475257;28;20059;-68
2022/01/31 16:58:39;;;;;;;6.45;1.90;;;;;;;4.09;67.15;99383.13;10474182;28;20062;-68
2022/01/31 17:03:41;;;;;;;4.25;1.40;;;;;;;3.76;67.62;99402.63;10482956;28;20040;-68
2022/01/31 17:08:44;;;;;;;6.72;1.33;;;;;;;4.00;67.11;99411.16;10473846;28;20051;-68
2022/01/31 17:13:46;;;;;;;3.08;1.30;;;;;;;3.95;67.04;99424.28;10473997;28;20076;-68
2022/01/31 17:18:48;;;;;;;3.22;1.40;;;;;;;4.15;66.70;99439.81;10472708;28;20044;-68
2022/01/31 17:23:50;;;;;;;5.38;2.13;;;;;;;3.99;66.76;99427.56;10471940;28;20504;-66
2022/01/31 17:28:52;;;;;;;4.70;1.50;;;;;;;3.99;67.12;99420.66;10472559;28;20501;-66
2022/01/31 17:33:54;;;;;;;4.80;1.50;;;;;;;4.02;66.51;99436.06;10472914;28;20127;-66
2022/01/31 17:38:56;;;;;;;5.20;1.83;;;;;;;4.09;66.81;99447.00;10473585;28;20060;-65
2022/01/31 17:44:04;;;;;;;3.90;1.70;;;;;;;4.04;66.67;99436.00;10472956;28;20141;-66
2022/01/31 17:49:06;;;;;;;3.35;1.45;;;;;;;3.98;66.90;99451.78;10471161;28;20480;-66
2022/01/31 17:54:08;;;;;;;3.95;1.70;;;;;;;3.99;67.03;99456.03;10472882;28;20449;-68
2022/01/31 17:59:10;;;;;;;6.38;1.70;;;;;;;3.92;67.13;99447.69;10472197;28;20171;-69
2022/01/31 18:04:13;;;;;;;5.07;1.60;;;;;;;3.82;67.08;99459.28;10473154;28;20798;-68
2022/01/31 18:09:15;;;;;;;5.22;1.60;;;;;;;3.76;67.40;99467.28;10473157;28;20041;-66
2022/01/31 18:14:19;;;;;;;5.75;3.15;;;;;;;3.97;67.14;99460.41;10470228;28;20071;-66
2022/01/31 18:19:21;;;;;;;5.00;1.83;;;;;;;3.85;67.16;99472.97;10469712;28;20044;-66
2022/01/31 18:24:23;;;;;;;5.20;1.90;;;;;;;3.75;67.64;99465.59;10471586;28;20131;-69
2022/01/31 18:29:25;;;;;;;4.10;1.40;;;;;;;3.72;67.67;99456.19;10469325;28;20052;-69
2022/01/31 18:34:27;;;;;;;6.32;1.52;;;;;;;3.76;67.44;99457.75;10471090;28;20506;-66
2022/01/31 18:39:30;;;;;;;5.13;1.52;;;;;;;3.66;67.80;99486.66;10467382;28;20058;-66
2022/01/31 18:44:35;;;;;;;4.25;1.80;;;;;;;3.62;68.11;99498.84;10470162;28;20058;-67
2022/01/31 18:49:40;;;;;;;3.70;1.30;;;;;;;3.54;68.54;99510.38;10468037;28;20055;-67
2022/01/31 18:54:45;;;;;;;3.70;1.77;;;;;;;3.61;68.75;99528.19;10466884;28;20059;-69
2022/01/31 18:59:47;;;;;;;6.45;2.25;;;;;;;3.48;69.55;99539.88;10465546;28;20052;-69
2022/01/31 19:04:49;;;;;;;7.55;2.45;;;;;;;3.53;69.88;99557.81;10463013;28;20054;-68
2022/01/31 19:09:51;;;;;;;7.05;2.22;;;;;;;3.65;69.85;99578.91;10465045;28;20137;-68
2022/01/31 19:19:54;;;;;;;11.43;3.17;;;;;;;3.85;69.79;99585.94;10465349;28;20060;-68
2022/01/31 19:24:57;;;;;;;11.13;3.42;;;;;;;3.91;69.94;99601.22;10467094;28;20048;-68
2022/01/31 19:29:59;;;;;;;11.10;3.75;;;;;;;4.16;69.53;99622.66;10469294;28;20057;-68
2022/01/31 19:35:01;;;;;;;13.07;4.63;;;;;;;4.24;69.36;99618.03;10462774;28;20053;-69
2022/01/31 19:45:06;;;;;;;7.65;3.90;;;;;;;4.25;69.41;99647.38;10467404;28;20049;-68
2022/01/31 19:50:08;;;;;;;7.15;3.13;;;;;;;4.32;69.18;99641.03;10467297;28;20050;-68
2022/01/31 19:55:09;;;;;;;6.90;2.65;;;;;;;4.22;69.33;99657.81;10473013;28;20052;-68
2022/01/31 20:00:11;;;;;;;8.73;2.30;;;;;;;4.16;69.58;99679.59;10467261;28;20048;-68
2022/01/31 20:05:13;;;;;;;12.45;4.32;;;;;;;4.24;69.44;99692.25;10465316;28;20094;-68
2022/01/31 20:10:16;;;;;;;8.73;3.50;;;;;;;4.25;69.41;99715.47;10472028;28;20623;-68
2022/01/31 20:15:18;;;;;;;6.43;2.45;;;;;;;4.13;68.88;99726.28;10473990;28;20040;-68
2022/01/31 20:20:20;;;;;;;6.57;2.50;;;;;;;4.45;68.48;99709.56;10469204;28;20056;-69
2022/01/31 20:25:22;;;;;;;7.22;2.83;;;;;;;4.55;67.88;99745.41;10473358;28;20245;-68
2022/01/31 20:30:23;;;;;;;6.10;2.70;;;;;;;4.55;67.74;99758.38;10474696;28;20075;-68
2022/01/31 20:35:27;;;;;;;5.63;2.10;;;;;;;4.49;67.51;99768.97;10471023;28;20892;-68
2022/01/31 20:40:44;;;;;;;6.50;2.30;;;;;;;4.42;67.65;99772.66;10474498;28;20522;-68
2022/01/31 20:45:46;;;;;;;5.65;2.60;;;;;;;4.53;67.18;99785.22;10470828;28;20087;-68
2022/01/31 20:50:49;;;;;;;5.38;2.53;;;;;;;4.38;67.72;99812.50;10472580;28;20053;-68
2022/01/31 20:55:52;;;;;;;5.40;2.20;;;;;;;4.28;67.08;99821.50;10474918;28;20052;-68
2022/01/31 21:00:56;;;;;;;3.20;1.85;;;;;;;4.03;68.14;99828.44;10473309;28;20049;-68
2022/01/31 21:06:02;;;;;;;5.07;2.00;;;;;;;3.95;68.23;99845.97;10473411;28;20059;-68
2022/01/31 21:11:07;;;;;;;4.75;1.85;;;;;;;3.69;69.13;99857.19;10473154;28;20135;-69
2022/01/31 21:16:11;;;;;;;4.72;1.90;;;;;;;3.43;69.38;99858.91;10473329;28;20063;-69
2022/01/31 21:21:13;;;;;;;5.55;2.35;;;;;;;3.38;69.49;99871.13;10472427;28;20072;-69
2022/01/31 21:26:16;;;;;;;4.93;2.28;;;;;;;3.28;70.00;99899.00;10469716;28;20052;-69
2022/01/31 21:31:18;;;;;;;4.88;2.40;;;;;;;3.50;69.81;99905.19;10469836;28;20070;-68
2022/01/31 21:36:21;;;;;;;6.60;2.53;;;;;;;3.71;69.22;99909.69;10465102;28;20495;-69
2022/01/31 21:41:23;;;;;;;7.35;3.28;;;;;;;3.94;68.90;99916.75;10483281;28;20131;-68
2022/01/31 21:46:24;;;;;;;8.00;2.92;;;;;;;4.02;68.79;99927.69;10470367;28;20052;-67
2022/01/31 21:51:27;;;;;;;8.82;3.50;;;;;;;4.13;68.56;99942.88;10470694;28;20546;-68
2022/01/31 21:56:29;;;;;;;4.43;2.65;;;;;;;4.08;68.74;99932.66;10472298;28;20076;-68
2022/01/31 22:01:31;;;;;;;4.82;2.65;;;;;;;4.22;68.18;99940.81;10471175;28;20048;-68
2022/01/31 22:06:33;;;;;;;7.63;2.42;;;;;;;4.23;68.20;99955.41;10469398;28;20602;-68
2022/01/31 22:11:41;;;;;;;4.65;2.40;;;;;;;4.18;68.18;99967.69;10470897;28;20550;-68
2022/01/31 22:16:44;;;;;;;4.47;2.10;;;;;;;4.25;67.80;99965.75;10470624;28;20052;-68
2022/01/31 22:21:46;;;;;;;5.50;2.58;;;;;;;4.30;67.54;99977.63;10469905;28;20138;-68
2022/01/31 22:26:48;;;;;;;6.55;2.33;;;;;;;4.23;67.94;99991.66;10470313;28;20160;-68
2022/01/31 22:31:54;;;;;;;3.78;1.77;;;;;;;4.11;67.87;100007.59;10469315;28;20067;-68
2022/01/31 22:36:56;;;;;;;3.88;1.90;;;;;;;4.23;68.03;100004.59;10467488;28;20048;-68
2022/01/31 22:41:58;;;;;;;4.88;2.63;;;;;;;4.32;67.88;100012.09;10469745;28;20120;-68
2022/01/31 22:47:00;;;;;;;6.40;3.08;;;;;;;4.18;67.77;100014.28;10481014;28;20127;-68
2022/01/31 22:52:03;;;;;;;5.40;2.38;;;;;;;3.97;67.69;100014.94;10468540;28;20137;-68
2022/01/31 22:57:08;;;;;;;4.25;2.35;;;;;;;3.81;68.21;100024.91;10467259;28;20810;-68
2022/01/31 23:02:09;;;;;;;3.40;1.95;;;;;;;3.76;68.15;100039.72;10467926;28;20049;-68
2022/01/31 23:07:12;;;;;;;3.47;1.67;;;;;;;3.77;68.00;100048.31;10468343;28;20044;-68
2022/01/31 23:12:14;;;;;;;3.60;1.77;;;;;;;3.73;67.99;100045.00;10468204;28;20750;-68
2022/01/31 23:17:25;;;;;;;3.25;1.65;;;;;;;3.75;68.04;100048.38;10463731;28;20501;-68
2022/01/31 23:54:21;;;;;;;20.25;4.55;;;;;;;3.55;68.58;100068.81;10465517;28;20127;-68
